Time;durP1;ratioP1;P1;durP2;ratioP2;P2;SDS_P1;SDS_P2;PMS_P1;PMS_P2;Temp;Humidity;BMP_temperature;BMP_pressure;BME280_temperature;BME280_humidity;BME280_pressure;Samples;Min_cycle;Max_cycle;Signal;HPM_P1;HPM_P2
2022/03/08 10:15:32;;;;;;;16.02;8.82;;;;;;;;;;6246028;22;20008;-96
2022/03/08 10:18:00;;;;;;;12.52;8.80;;;;;;;;;;6231219;23;20016;-96
2022/03/08 10:20:33;;;;;;;12.70;7.75;;;;;;;;;;6233219;23;20015;-93
2022/03/08 10:25:33;;;;;;;15.70;8.57;;;;;;;;;;6250543;22;20024;-94
2022/03/08 10:28:05;;;;;;;14.80;8.27;;;;;;;;;;6228858;23;20015;-93
2022/03/08 10:30:51;;;;;;;13.15;8.15;;;;;;;;;;6226233;23;20038;-95
2022/03/08 10:33:19;;;;;;;15.25;8.40;;;;;;;;;;6245949;23;20008;-92
2022/03/08 10:36:21;;;;;;;15.45;8.32;;;;;;;;;;6259445;23;20031;-92
2022/03/08 10:39:13;;;;;;;15.30;7.97;;;;;;;;;;6263868;22;20004;-92
2022/03/08 10:41:47;;;;;;;13.15;8.70;;;;;;;;;;6252540;23;20004;-92
2022/03/08 10:44:14;;;;;;;13.15;7.82;;;;;;;;;;6252120;23;20087;-93
2022/03/08 10:46:40;;;;;;;14.73;9.45;;;;;;;;;;6259426;23;20011;-92
2022/03/08 11:20:16;;;;;;;12.05;8.27;;;;;;;;;;6212731;22;20020;-95
2022/03/08 11:46:24;;;;;;;13.82;8.75;;;;;;;;;;6199684;22;20036;-93
2022/03/08 11:51:32;;;;;;;13.48;8.23;;;;;;;;;;6285279;22;20024;-95
2022/03/08 11:58:10;;;;;;;12.45;7.88;;;;;;;;;;6249844;22;20000;-95
2022/03/08 12:00:41;;;;;;;13.82;8.55;;;;;;;;;;6202815;23;19989;-95
2022/03/08 12:03:26;;;;;;;13.88;8.73;;;;;;;;;;6224714;22;20098;-95
2022/03/08 12:06:08;;;;;;;11.73;7.85;;;;;;;;;;6237356;23;20012;-94
2022/03/08 12:09:00;;;;;;;12.05;8.55;;;;;;;;;;6229791;23;20088;-95
2022/03/08 12:11:57;;;;;;;11.80;8.50;;;;;;;;;;6216691;23;20034;-93
2022/03/08 12:14:29;;;;;;;11.77;8.70;;;;;;;;;;6112872;23;20061;-94
2022/03/08 12:17:10;;;;;;;14.30;8.85;;;;;;;;;;6116233;23;20020;-94
2022/03/08 18:47:25;;;;;;;23.83;13.07;;;;;;;;;;6218859;22;20066;-95
2022/03/08 18:49:52;;;;;;;20.40;13.65;;;;;;;;;;6249649;22;20016;-96
2022/03/08 18:52:18;;;;;;;22.30;13.27;;;;;;;;;;6234253;22;20000;-96
2022/03/08 18:55:07;;;;;;;21.92;12.75;;;;;;;;;;6230367;22;20004;-96
2022/03/08 19:09:27;;;;;;;19.50;11.90;;;;;;;;;;6218179;22;20015;31
2022/03/08 19:15:00;;;;;;;23.08;12.25;;;;;;;;;;6231292;22;20024;-94
2022/03/08 19:17:33;;;;;;;21.17;11.88;;;;;;;;;;6188556;23;20017;-96
2022/03/08 20:35:53;;;;;;;26.80;13.85;;;;;;;;;;6252066;22;20069;-96
2022/03/08 20:38:31;;;;;;;26.98;15.65;;;;;;;;;;6232402;23;20012;-95
2022/03/08 20:41:15;;;;;;;20.70;12.57;;;;;;;;;;6246045;23;20004;-96
2022/03/08 20:43:43;;;;;;;18.42;11.00;;;;;;;;;;6250569;23;20004;-96
2022/03/08 20:46:25;;;;;;;20.92;11.65;;;;;;;;;;6266052;22;20012;-96
2022/03/08 20:51:54;;;;;;;21.48;12.88;;;;;;;;;;6248386;22;20023;-95
2022/03/08 20:54:24;;;;;;;25.02;13.73;;;;;;;;;;6209355;23;20406;-96
2022/03/08 21:02:16;;;;;;;21.95;12.27;;;;;;;;;;6214177;22;20024;-94
2022/03/08 21:05:06;;;;;;;22.55;13.32;;;;;;;;;;6265492;22;20024;-92
2022/03/08 21:07:44;;;;;;;19.70;11.25;;;;;;;;;;6243188;23;19998;-92
2022/03/08 21:10:15;;;;;;;21.73;11.90;;;;;;;;;;6269561;22;20079;-92
2022/03/08 21:13:35;;;;;;;19.15;11.13;;;;;;;;;;6234716;23;20061;-93
2022/03/08 21:16:47;;;;;;;20.10;11.45;;;;;;;;;;6229628;22;20943;-92
2022/03/08 21:33:27;;;;;;;21.00;12.82;;;;;;;;;;6271421;22;20011;-92
2022/03/08 21:35:57;;;;;;;23.45;12.07;;;;;;;;;;6219195;23;19993;-94
2022/03/08 21:38:43;;;;;;;23.73;12.45;;;;;;;;;;6241623;23;19996;-92
2022/03/08 21:41:57;;;;;;;22.42;13.18;;;;;;;;;;6241426;22;20003;-91
2022/03/08 21:45:14;;;;;;;21.60;12.07;;;;;;;;;;6268482;22;20025;-92
2022/03/08 21:48:08;;;;;;;23.92;13.57;;;;;;;;;;6239419;23;20011;-93
2022/03/08 21:51:19;;;;;;;26.10;12.65;;;;;;;;;;6245153;22;20035;-94
2022/03/08 22:53:27;;;;;;;27.55;14.82;;;;;;;;;;6222085;22;20021;-95
2022/03/08 22:55:56;;;;;;;23.10;13.30;;;;;;;;;;6233569;23;20439;-93
2022/03/08 23:02:20;;;;;;;26.35;13.43;;;;;;;;;;6275117;22;20004;-96
2022/03/08 23:12:53;;;;;;;29.10;16.48;;;;;;;;;;6249477;22;20024;-95
2022/03/08 23:15:20;;;;;;;29.73;17.38;;;;;;;;;;6274183;22;20012;-93
2022/03/08 23:17:55;;;;;;;31.20;17.13;;;;;;;;;;6267631;22;19996;-96
2022/03/08 23:23:02;;;;;;;28.30;16.20;;;;;;;;;;6211403;22;20051;-94
2022/03/08 23:25:32;;;;;;;28.08;16.73;;;;;;;;;;6262389;23;20023;-96
